MV Fenella — A8YX7 — position and weather

sailwx.info

Track history (hours):
 
Tides and Currents Weather Stations Pressure Air Temp Water Temp Dewpoint Dewpoint Depression Visibility Wind Speed Wind Dir Waves Ship Positions

MV Fenella

Last reported at 2014-Nov-30 08:07 UTC. Time now 2014-Dec-19 22:46 UTC.
Position N 43°29' W 069°57'.
Warning: this ship's position is 19 days out of date.

Length 159 m; draft 6.5 m.

Type: Cargo ship. MMSI: 636092234.

Date/timePositionNaut miles runAvg speedWind from/ knotsBaromVisibWave heightAir tempDewpointWater temp
2014-Nov-30 08:07N 43°29' W 069°57'711.8
2014-Nov-30 07:33N 43°31' W 070°06'9 9.0
2014-Nov-30 06:33N 43°38' W 070°13'1 1.2
2014-Nov-30 05:26N 43°40' W 070°13'0 0.0
2014-Nov-30 04:32N 43°40' W 070°13'0 0.0
2014-Nov-30 00:05N 43°40' W 070°13'0 0.3
2014-Nov-29 23:33N 43°39' W 070°13'2 0.0
2014-Nov-28 05:17N 43°39' W 070°15'5 7.4
2014-Nov-28 04:33N 43°36' W 070°09'9 8.4
2014-Nov-28 03:33N 43°32' W 069°59'  
Track history (hours):
 
Tides and Currents Weather Stations Pressure Air Temp Water Temp Dewpoint Dewpoint Depression Visibility Wind Speed Wind Dir Waves Ship Positions

MV Fenella

Last reported at 2014-Nov-30 08:07 UTC. Time now 2014-Dec-19 22:46 UTC.
Position N 43°29' W 069°57'.
Warning: this ship's position is 19 days out of date.

Length 159 m; draft 6.5 m.

Type: Cargo ship. MMSI: 636092234.

Date/timePositionNaut miles runAvg speedWind from/ knotsBaromVisibWave heightAir tempDewpointWater temp
2014-Nov-30 08:07N 43°29' W 069°57'711.8
2014-Nov-30 07:33N 43°31' W 070°06'9 9.0
2014-Nov-30 06:33N 43°38' W 070°13'1 1.2
2014-Nov-30 05:26N 43°40' W 070°13'0 0.0
2014-Nov-30 04:32N 43°40' W 070°13'0 0.0
2014-Nov-30 00:05N 43°40' W 070°13'0 0.3
2014-Nov-29 23:33N 43°39' W 070°13'2 0.0
2014-Nov-28 05:17N 43°39' W 070°15'5 7.4
2014-Nov-28 04:33N 43°36' W 070°09'9 8.4
2014-Nov-28 03:33N 43°32' W 069°59'  

Dump ship's entire track history